Stk-1020 — UCYT — position and weather

sailwx.info

Track history (hours):
 
Tides and Currents Weather Stations Pressure Air Temp Water Temp Dewpoint Dewpoint Depression Visibility Wind Speed Wind Dir Waves Ship Positions

Stk-1020

Last reported at 2018-May-25 00:56 UTC. Time now 2018-May-27 10:01 UTC.
Position N 59°51' E 030°30'.

Length 82 m; draft 2.4 m.

Type: Cargo ship. MMSI: 273362200.

Date/timePositionNaut miles runAvg speedWind from/ knotsBaromVisibWave heightAir tempDewpointWater temp
2018-May-25 00:56N 59°51' E 030°30'2 4.1
2018-May-25 00:23N 59°52' E 030°27'2 4.6
2018-May-24 23:57N 59°54' E 030°26'2 5.2
2018-May-24 23:30N 59°56' E 030°24'2 3.6
2018-May-24 23:00N 59°57' E 030°21'2 4.1
2018-May-24 22:30N 59°56' E 030°17'0 0.0
2018-May-24 22:00N 59°56' E 030°17'0 0.0
2018-May-24 21:28N 59°56' E 030°17'0 0.0
2018-May-24 20:55N 59°56' E 030°17'0 0.0
2018-May-24 20:29N 59°56' E 030°17'0 0.0
2018-May-24 19:56N 59°56' E 030°17'0 0.0
2018-May-24 19:29N 59°56' E 030°17'0 0.0
2018-May-24 18:59N 59°56' E 030°17'0 0.0
2018-May-24 18:30N 59°56' E 030°17'0 0.0
2018-May-24 18:00N 59°56' E 030°17'0 0.0
2018-May-24 17:30N 59°56' E 030°17'0 0.0
2018-May-24 16:58N 59°56' E 030°17'0 0.0
2018-May-24 16:28N 59°56' E 030°17'0 0.0
2018-May-24 15:58N 59°56' E 030°17'0 0.0
2018-May-24 15:29N 59°56' E 030°17'0 0.0
2018-May-24 14:59N 59°56' E 030°17'0 0.0
2018-May-24 14:29N 59°56' E 030°17'0 0.0
2018-May-24 14:00N 59°56' E 030°17'0 0.0
2018-May-24 13:30N 59°56' E 030°17'0 0.0
2018-May-24 09:00N 59°56' E 030°17'0 0.0
2018-May-24 08:30N 59°56' E 030°17'0 0.0
2018-May-24 07:58N 59°56' E 030°17'0 0.0
2018-May-24 07:28N 59°56' E 030°17'0 0.0
2018-May-24 06:58N 59°56' E 030°17'0 0.0
2018-May-24 06:29N 59°56' E 030°17'0 0.0
2018-May-24 05:59N 59°56' E 030°17'0 0.0
2018-May-24 05:29N 59°56' E 030°17'0 0.0
2018-May-24 05:00N 59°56' E 030°17'0 0.0
2018-May-24 04:30N 59°56' E 030°17'0 0.0
2018-May-24 04:00N 59°56' E 030°17'0 0.0
2018-May-24 03:31N 59°56' E 030°17'0 0.0
2018-May-24 03:00N 59°56' E 030°17'0 0.0
2018-May-24 02:30N 59°56' E 030°17'1 2.3
2018-May-24 02:01N 59°55' E 030°16'3 5.4
2018-May-24 01:30N 59°56' E 030°11'3 6.0
2018-May-24 01:00N 59°56' E 030°05'4 7.1
2018-May-24 00:30N 59°56' E 029°58'4 7.5
2018-May-24 00:00N 59°57' E 029°51'4 7.4
2018-May-23 23:30N 59°59' E 029°44'4 7.4
2018-May-23 23:00N 60°00' E 029°37'4 8.0
2018-May-23 22:29N 60°01' E 029°29'4 7.5
2018-May-23 22:00N 60°01' E 029°22'3 6.5
2018-May-23 21:30N 60°04' E 029°18'4 7.8
2018-May-23 20:58N 60°06' E 029°10'5 9.6
2018-May-23 20:24N 60°08' E 029°00'4 8.3
2018-May-23 19:56N 60°09' E 028°53'3 6.0
2018-May-23 19:30N 60°11' E 028°48'4 8.3
2018-May-23 18:59N 60°13' E 028°41'4 8.4
2018-May-23 18:29N 60°15' E 028°34'4 8.2
2018-May-23 18:00N 60°17' E 028°28'4 8.1
2018-May-23 17:30N 60°20' E 028°22'4 8.0
2018-May-23 17:00N 60°24' E 028°21'  
2018-May-17 11:14N 60°28' E 028°22'2 7.2
2018-May-17 11:00N 60°27' E 028°20'4 7.9
2018-May-17 10:28N 60°23' E 028°21'4 6.2
2018-May-17 09:53N 60°19' E 028°23'3 7.4
2018-May-17 09:30N 60°17' E 028°28'4 7.4
2018-May-17 09:00N 60°15' E 028°33'3 7.0
2018-May-17 08:30N 60°13' E 028°39'4 7.0
2018-May-17 08:00N 60°12' E 028°46'3 7.0
2018-May-17 07:30N 60°11' E 028°52'3 6.7
2018-May-17 07:00N 60°08' E 028°56'3 6.5
2018-May-17 06:28N 60°05' E 028°58'3 6.1
2018-May-17 06:00N 60°02' E 029°02'4 7.6
2018-May-17 05:30N 60°02' E 029°10'4 8.3
2018-May-17 05:00N 60°02' E 029°18'11 7.1
2018-May-17 03:32N 60°00' E 029°39'2 8.0
2018-May-17 03:15N 59°59' E 029°43'2 7.3
2018-May-17 02:58N 59°59' E 029°46'3 6.9
2018-May-17 02:30N 59°57' E 029°52'4 7.3
2018-May-17 02:00N 59°56' E 029°59'4 7.5
2018-May-17 01:30N 59°54' E 030°06'3 6.4
2018-May-17 01:00N 59°53' E 030°12'3 6.3
2018-May-17 00:30N 59°55' E 030°16'3 5.9
2018-May-17 00:00N 59°57' E 030°21'2 4.2
2018-May-16 23:30N 59°55' E 030°24'4 7.3
2018-May-16 22:58N 59°52' E 030°28'  
Track history (hours):
 
Tides and Currents Weather Stations Pressure Air Temp Water Temp Dewpoint Dewpoint Depression Visibility Wind Speed Wind Dir Waves Ship Positions

Stk-1020

Last reported at 2018-May-25 00:56 UTC. Time now 2018-May-27 10:01 UTC.
Position N 59°51' E 030°30'.

Length 82 m; draft 2.4 m.

Type: Cargo ship. MMSI: 273362200.

Date/timePositionNaut miles runAvg speedWind from/ knotsBaromVisibWave heightAir tempDewpointWater temp
2018-May-25 00:56N 59°51' E 030°30'2 4.1
2018-May-25 00:23N 59°52' E 030°27'2 4.6
2018-May-24 23:57N 59°54' E 030°26'2 5.2
2018-May-24 23:30N 59°56' E 030°24'2 3.6
2018-May-24 23:00N 59°57' E 030°21'2 4.1
2018-May-24 22:30N 59°56' E 030°17'0 0.0
2018-May-24 22:00N 59°56' E 030°17'0 0.0
2018-May-24 21:28N 59°56' E 030°17'0 0.0
2018-May-24 20:55N 59°56' E 030°17'0 0.0
2018-May-24 20:29N 59°56' E 030°17'0 0.0
2018-May-24 19:56N 59°56' E 030°17'0 0.0
2018-May-24 19:29N 59°56' E 030°17'0 0.0
2018-May-24 18:59N 59°56' E 030°17'0 0.0
2018-May-24 18:30N 59°56' E 030°17'0 0.0
2018-May-24 18:00N 59°56' E 030°17'0 0.0
2018-May-24 17:30N 59°56' E 030°17'0 0.0
2018-May-24 16:58N 59°56' E 030°17'0 0.0
2018-May-24 16:28N 59°56' E 030°17'0 0.0
2018-May-24 15:58N 59°56' E 030°17'0 0.0
2018-May-24 15:29N 59°56' E 030°17'0 0.0
2018-May-24 14:59N 59°56' E 030°17'0 0.0
2018-May-24 14:29N 59°56' E 030°17'0 0.0
2018-May-24 14:00N 59°56' E 030°17'0 0.0
2018-May-24 13:30N 59°56' E 030°17'0 0.0
2018-May-24 09:00N 59°56' E 030°17'0 0.0
2018-May-24 08:30N 59°56' E 030°17'0 0.0
2018-May-24 07:58N 59°56' E 030°17'0 0.0
2018-May-24 07:28N 59°56' E 030°17'0 0.0
2018-May-24 06:58N 59°56' E 030°17'0 0.0
2018-May-24 06:29N 59°56' E 030°17'0 0.0
2018-May-24 05:59N 59°56' E 030°17'0 0.0
2018-May-24 05:29N 59°56' E 030°17'0 0.0
2018-May-24 05:00N 59°56' E 030°17'0 0.0
2018-May-24 04:30N 59°56' E 030°17'0 0.0
2018-May-24 04:00N 59°56' E 030°17'0 0.0
2018-May-24 03:31N 59°56' E 030°17'0 0.0
2018-May-24 03:00N 59°56' E 030°17'0 0.0
2018-May-24 02:30N 59°56' E 030°17'1 2.3
2018-May-24 02:01N 59°55' E 030°16'3 5.4
2018-May-24 01:30N 59°56' E 030°11'3 6.0
2018-May-24 01:00N 59°56' E 030°05'4 7.1
2018-May-24 00:30N 59°56' E 029°58'4 7.5
2018-May-24 00:00N 59°57' E 029°51'4 7.4
2018-May-23 23:30N 59°59' E 029°44'4 7.4
2018-May-23 23:00N 60°00' E 029°37'4 8.0
2018-May-23 22:29N 60°01' E 029°29'4 7.5
2018-May-23 22:00N 60°01' E 029°22'3 6.5
2018-May-23 21:30N 60°04' E 029°18'4 7.8
2018-May-23 20:58N 60°06' E 029°10'5 9.6
2018-May-23 20:24N 60°08' E 029°00'4 8.3
2018-May-23 19:56N 60°09' E 028°53'3 6.0
2018-May-23 19:30N 60°11' E 028°48'4 8.3
2018-May-23 18:59N 60°13' E 028°41'4 8.4
2018-May-23 18:29N 60°15' E 028°34'4 8.2
2018-May-23 18:00N 60°17' E 028°28'4 8.1
2018-May-23 17:30N 60°20' E 028°22'4 8.0
2018-May-23 17:00N 60°24' E 028°21'  
2018-May-17 11:14N 60°28' E 028°22'2 7.2
2018-May-17 11:00N 60°27' E 028°20'4 7.9
2018-May-17 10:28N 60°23' E 028°21'4 6.2
2018-May-17 09:53N 60°19' E 028°23'3 7.4
2018-May-17 09:30N 60°17' E 028°28'4 7.4
2018-May-17 09:00N 60°15' E 028°33'3 7.0
2018-May-17 08:30N 60°13' E 028°39'4 7.0
2018-May-17 08:00N 60°12' E 028°46'3 7.0
2018-May-17 07:30N 60°11' E 028°52'3 6.7
2018-May-17 07:00N 60°08' E 028°56'3 6.5
2018-May-17 06:28N 60°05' E 028°58'3 6.1
2018-May-17 06:00N 60°02' E 029°02'4 7.6
2018-May-17 05:30N 60°02' E 029°10'4 8.3
2018-May-17 05:00N 60°02' E 029°18'11 7.1
2018-May-17 03:32N 60°00' E 029°39'2 8.0
2018-May-17 03:15N 59°59' E 029°43'2 7.3
2018-May-17 02:58N 59°59' E 029°46'3 6.9
2018-May-17 02:30N 59°57' E 029°52'4 7.3
2018-May-17 02:00N 59°56' E 029°59'4 7.5
2018-May-17 01:30N 59°54' E 030°06'3 6.4
2018-May-17 01:00N 59°53' E 030°12'3 6.3
2018-May-17 00:30N 59°55' E 030°16'3 5.9
2018-May-17 00:00N 59°57' E 030°21'2 4.2
2018-May-16 23:30N 59°55' E 030°24'4 7.3
2018-May-16 22:58N 59°52' E 030°28'  

Dump ship's entire track history